createdAt,value
2023-04-07T00:01:15.740Z,27.05
2023-04-07T00:03:45.712Z,24.15
2023-04-07T00:06:14.979Z,24.80
2023-04-07T00:08:45.242Z,31.70
2023-04-07T00:11:15.042Z,22.88
2023-04-07T00:13:44.078Z,20.70
2023-04-07T00:16:13.567Z,28.73
2023-04-07T00:18:42.621Z,25.10
2023-04-07T00:21:11.981Z,25.15
2023-04-07T00:23:41.479Z,26.02
2023-04-07T00:26:10.966Z,27.75
2023-04-07T00:28:41.503Z,26.38
2023-04-07T00:31:10.946Z,31.23
2023-04-07T00:33:40.184Z,29.05
2023-04-07T00:36:09.706Z,26.48
2023-04-07T00:38:40.020Z,27.23
2023-04-07T00:41:09.595Z,29.13
2023-04-07T00:43:38.728Z,27.92
2023-04-07T00:46:08.933Z,30.83
2023-04-07T00:48:39.187Z,25.45
2023-04-07T00:51:08.888Z,24.60
2023-04-07T00:53:38.578Z,28.67
2023-04-07T00:56:08.719Z,29.40
2023-04-07T00:58:37.806Z,28.33
2023-04-07T01:01:14.862Z,28.83
2023-04-07T01:03:45.303Z,26.67
2023-04-07T01:06:19.568Z,26.65
2023-04-07T01:08:55.271Z,26.75
2023-04-07T01:11:34.470Z,26.63
2023-04-07T01:14:05.270Z,28.75
2023-04-07T01:16:59.786Z,22.63
2023-04-07T01:20:08.917Z,35.00
2023-04-07T01:22:47.616Z,29.60
2023-04-07T01:25:25.139Z,26.83
2023-04-07T01:27:55.549Z,24.13
2023-04-07T01:30:25.684Z,27.50
2023-04-07T01:32:56.707Z,33.58
2023-04-07T01:35:27.703Z,25.45
2023-04-07T01:37:59.129Z,25.45
2023-04-07T01:40:30.278Z,25.80
2023-04-07T01:43:02.012Z,31.55
2023-04-07T01:45:35.086Z,24.85
2023-04-07T01:48:08.347Z,26.08
2023-04-07T01:53:09.023Z,29.27
2023-04-07T01:55:39.700Z,27.60
2023-04-07T01:58:11.611Z,34.65
2023-04-07T02:00:44.689Z,25.83
2023-04-07T02:03:25.196Z,24.90
2023-04-07T02:05:59.409Z,25.00
2023-04-07T02:08:34.159Z,25.95
2023-04-07T02:11:05.309Z,24.48
2023-04-07T02:13:40.171Z,25.75
2023-04-07T02:16:13.972Z,31.33
2023-04-07T02:18:45.176Z,38.35
2023-04-07T02:21:17.240Z,22.38
2023-04-07T02:23:48.678Z,30.98
2023-04-07T02:26:18.378Z,38.00
2023-04-07T02:28:47.557Z,21.08
2023-04-07T02:31:19.537Z,29.60
2023-04-07T02:33:48.751Z,26.65
2023-04-07T02:36:18.702Z,22.58
2023-04-07T02:38:47.740Z,25.20
2023-04-07T02:41:17.180Z,34.10
2023-04-07T02:43:47.264Z,27.17
2023-04-07T02:46:17.968Z,33.30
2023-04-07T02:48:47.504Z,37.88
2023-04-07T02:51:16.849Z,36.38
2023-04-07T02:53:46.568Z,34.95
2023-04-07T02:56:16.487Z,43.75
2023-04-07T02:58:46.047Z,33.60
2023-04-07T03:01:16.049Z,31.17
2023-04-07T03:03:46.293Z,60.65
2023-04-07T03:06:23.265Z,79.28
2023-04-07T03:09:13.368Z,39.97
2023-04-07T03:11:43.020Z,32.40
2023-04-07T03:14:12.342Z,45.20
2023-04-07T03:16:47.628Z,29.92
2023-04-07T03:19:18.117Z,41.25
2023-04-07T03:21:51.077Z,76.13
2023-04-07T03:24:20.401Z,31.95
2023-04-07T03:26:49.738Z,53.63
2023-04-07T03:29:25.856Z,37.47
2023-04-07T03:31:55.605Z,35.38
2023-04-07T03:34:26.917Z,44.72
2023-04-07T03:36:59.931Z,32.78
2023-04-07T03:39:31.503Z,34.97
2023-04-07T03:42:03.735Z,29.52
2023-04-07T03:44:35.523Z,29.53
2023-04-07T03:47:04.784Z,28.95
2023-04-07T03:49:35.450Z,39.10
2023-04-07T03:52:05.051Z,37.65
2023-04-07T03:54:36.657Z,33.55
2023-04-07T03:57:05.938Z,28.70
2023-04-07T03:59:40.318Z,35.38
2023-04-07T04:02:09.929Z,32.58
2023-04-07T04:04:40.176Z,31.48
2023-04-07T04:07:11.087Z,33.25
2023-04-07T04:09:50.795Z,40.88
2023-04-07T04:12:20.887Z,55.85
2023-04-07T04:15:01.998Z,36.88
2023-04-07T04:17:32.518Z,45.85
2023-04-07T04:20:02.179Z,46.55
2023-04-07T04:22:43.006Z,31.02
2023-04-07T04:25:13.859Z,39.08
2023-04-07T04:27:48.712Z,35.42
2023-04-07T04:30:22.102Z,45.30
2023-04-07T04:32:59.524Z,38.88
2023-04-07T04:35:47.707Z,32.15
2023-04-07T04:38:21.596Z,34.53
2023-04-07T04:40:59.514Z,33.85
2023-04-07T04:43:33.001Z,36.97
2023-04-07T04:46:03.916Z,38.65
2023-04-07T04:48:38.443Z,36.92
2023-04-07T04:51:10.056Z,36.42
2023-04-07T04:53:45.867Z,36.10
2023-04-07T04:56:16.024Z,39.20
2023-04-07T04:58:48.489Z,42.80
2023-04-07T05:01:26.699Z,40.25
2023-04-07T05:04:04.884Z,42.72
2023-04-07T05:06:35.048Z,38.70
2023-04-07T05:09:09.431Z,43.45
2023-04-07T05:11:45.786Z,45.70
2023-04-07T05:14:15.164Z,48.85
2023-04-07T05:16:50.776Z,41.33
2023-04-07T05:19:24.154Z,45.28
2023-04-07T05:21:57.492Z,38.85
2023-04-07T05:24:30.736Z,39.60
2023-04-07T05:27:03.302Z,34.40
2023-04-07T05:29:33.720Z,41.42
2023-04-07T05:32:04.709Z,30.35
2023-04-07T05:34:34.282Z,31.77
2023-04-07T05:37:03.390Z,27.90
2023-04-07T05:39:33.513Z,28.23
2023-04-07T05:42:07.982Z,29.40
2023-04-07T05:44:38.988Z,24.20
2023-04-07T05:47:10.209Z,28.23
2023-04-07T05:49:47.102Z,28.15
2023-04-07T05:52:17.280Z,25.88
2023-04-07T05:54:53.129Z,29.15
2023-04-07T05:57:24.045Z,29.83
2023-04-07T05:59:54.020Z,29.10
2023-04-07T06:02:24.427Z,27.67
2023-04-07T06:04:55.017Z,23.33
2023-04-07T06:07:24.657Z,23.25
2023-04-07T06:10:11.139Z,19.27
2023-04-07T06:12:40.835Z,25.63
2023-04-07T06:15:10.904Z,28.23
2023-04-07T06:17:40.843Z,23.85
2023-04-07T06:20:10.521Z,26.38
2023-04-07T06:22:40.469Z,23.88
2023-04-07T06:25:10.589Z,18.77
2023-04-07T06:27:40.445Z,23.60
2023-04-07T06:30:11.351Z,25.33
2023-04-07T06:32:41.516Z,25.15
2023-04-07T06:35:11.099Z,23.38
2023-04-07T06:37:40.634Z,28.75
2023-04-07T06:40:10.289Z,22.52
2023-04-07T06:42:39.588Z,23.05
2023-04-07T06:45:17.747Z,19.27
2023-04-07T06:47:47.134Z,19.58
2023-04-07T06:50:16.806Z,15.50
2023-04-07T06:52:46.312Z,22.17
2023-04-07T06:55:16.792Z,22.38
2023-04-07T06:57:46.050Z,20.27
2023-04-07T07:00:16.281Z,17.80
2023-04-07T07:02:46.590Z,19.77
2023-04-07T07:05:16.449Z,26.35
2023-04-07T07:07:46.213Z,21.52
2023-04-07T07:10:16.301Z,26.27
2023-04-07T07:12:45.789Z,24.60
2023-04-07T07:15:15.143Z,17.85
2023-04-07T07:17:45.297Z,23.60
2023-04-07T07:20:15.240Z,18.85
2023-04-07T07:22:44.863Z,17.80
2023-04-07T07:25:14.770Z,14.93
2023-04-07T07:27:44.096Z,12.85
2023-04-07T07:30:13.314Z,18.60
2023-04-07T07:32:42.798Z,16.60
2023-04-07T07:35:12.365Z,14.27
2023-04-07T07:37:41.623Z,19.45
2023-04-07T07:40:10.973Z,16.85
2023-04-07T07:42:40.460Z,14.38
2023-04-07T07:45:10.518Z,17.27
2023-04-07T07:47:43.159Z,19.88
2023-04-07T07:50:13.552Z,10.63
2023-04-07T07:52:42.809Z,15.60
2023-04-07T07:55:12.446Z,16.65
2023-04-07T07:57:42.022Z,12.00
2023-04-07T08:00:12.417Z,18.08
2023-04-07T08:02:44.809Z,15.25
2023-04-07T08:05:14.474Z,14.88
2023-04-07T08:07:44.627Z,14.32
2023-04-07T08:10:14.537Z,19.05
2023-04-07T08:12:43.632Z,14.65
2023-04-07T08:15:13.344Z,10.55
2023-04-07T08:17:42.615Z,17.20
2023-04-07T08:20:13.095Z,16.83
2023-04-07T08:22:42.686Z,11.73
2023-04-07T08:25:12.315Z,21.25
2023-04-07T08:27:41.550Z,9.98
2023-04-07T08:30:11.476Z,19.88
2023-04-07T08:32:46.096Z,12.20
2023-04-07T08:35:16.062Z,15.13
2023-04-07T08:37:45.480Z,16.50
2023-04-07T08:40:15.205Z,15.63
2023-04-07T08:42:48.565Z,9.73
2023-04-07T08:45:19.831Z,16.73
2023-04-07T08:47:51.140Z,11.60
2023-04-07T08:50:24.479Z,14.73
2023-04-07T08:52:58.807Z,14.88
2023-04-07T08:55:28.866Z,12.07
2023-04-07T08:58:01.614Z,21.20
2023-04-07T09:00:33.130Z,15.10
2023-04-07T09:03:04.566Z,18.27
2023-04-07T09:05:35.311Z,12.93
2023-04-07T09:08:05.316Z,10.55
2023-04-07T09:10:34.829Z,18.23
2023-04-07T09:13:04.209Z,11.40
2023-04-07T09:15:33.773Z,15.05
2023-04-07T09:18:04.596Z,12.13
2023-04-07T09:21:04.593Z,16.10
2023-04-07T09:23:38.633Z,15.43
2023-04-07T09:26:23.314Z,13.80
2023-04-07T09:29:00.797Z,13.48
2023-04-07T09:31:49.654Z,13.13
2023-04-07T09:34:30.727Z,11.15
2023-04-07T09:37:00.624Z,12.63
2023-04-07T09:39:30.782Z,11.80
2023-04-07T09:42:00.596Z,18.75
2023-04-07T09:44:29.712Z,15.57
2023-04-07T09:47:01.896Z,11.63
2023-04-07T09:49:31.707Z,15.85
2023-04-07T09:52:06.338Z,12.65
2023-04-07T09:54:37.609Z,17.17
2023-04-07T09:57:09.062Z,10.45
2023-04-07T09:59:42.178Z,10.57
2023-04-07T10:04:42.566Z,12.75
2023-04-07T10:07:11.681Z,7.57
2023-04-07T10:09:41.074Z,11.27
2023-04-07T10:12:10.284Z,14.85
2023-04-07T10:14:40.315Z,20.52
2023-04-07T10:17:10.178Z,9.88
2023-04-07T10:19:40.253Z,13.23
2023-04-07T10:22:09.712Z,13.05
2023-04-07T10:25:00.052Z,12.23
2023-04-07T10:27:38.737Z,17.05
2023-04-07T10:30:14.096Z,13.02
2023-04-07T10:32:51.436Z,12.18
2023-04-07T10:35:22.539Z,14.20
2023-04-07T10:38:11.938Z,10.00
2023-04-07T10:40:43.132Z,11.35
2023-04-07T10:43:13.259Z,9.98
2023-04-07T10:45:53.462Z,13.10
2023-04-07T10:48:23.850Z,10.48
2023-04-07T10:51:11.973Z,8.43
2023-04-07T10:54:24.116Z,8.57
2023-04-07T10:57:15.305Z,11.90
2023-04-07T11:00:22.098Z,14.15
2023-04-07T11:02:53.066Z,6.82
2023-04-07T11:05:24.654Z,10.52
2023-04-07T11:08:00.525Z,5.32
2023-04-07T11:10:30.013Z,7.32
2023-04-07T11:13:05.241Z,6.80
2023-04-07T11:15:40.692Z,8.82
2023-04-07T11:18:23.312Z,8.13
2023-04-07T11:21:01.639Z,14.52
2023-04-07T11:23:39.484Z,14.80
2023-04-07T11:26:10.068Z,9.73
2023-04-07T11:28:56.727Z,18.60
2023-04-07T11:31:32.506Z,10.18
2023-04-07T11:34:06.772Z,10.32
2023-04-07T11:36:40.638Z,11.93
2023-04-07T11:39:23.598Z,7.63
2023-04-07T11:41:53.372Z,9.05
2023-04-07T11:44:23.126Z,21.52
2023-04-07T11:46:59.868Z,6.38
2023-04-07T11:49:29.728Z,6.82
2023-04-07T11:52:08.371Z,6.97
2023-04-07T11:54:55.976Z,9.00
2023-04-07T11:57:31.459Z,12.18
2023-04-07T12:00:27.223Z,4.63
2023-04-07T12:02:57.842Z,3.60
2023-04-07T12:05:27.925Z,4.70
2023-04-07T12:07:58.838Z,11.18
2023-04-07T12:10:28.664Z,12.30
2023-04-07T12:12:59.403Z,10.40
2023-04-07T12:15:28.968Z,7.32
2023-04-07T12:17:58.893Z,4.97
2023-04-07T12:20:29.117Z,18.08
2023-04-07T12:23:01.215Z,7.40
2023-04-07T12:25:30.611Z,9.85
2023-04-07T12:27:59.942Z,9.55
2023-04-07T12:30:29.504Z,4.93
2023-04-07T12:32:58.897Z,8.85
2023-04-07T12:35:28.219Z,7.93
2023-04-07T12:37:57.954Z,9.35
2023-04-07T12:40:31.153Z,7.18
2023-04-07T12:45:32.225Z,12.75
2023-04-07T12:48:02.237Z,8.55
2023-04-07T12:50:31.960Z,10.32
2023-04-07T12:53:04.799Z,6.38
2023-04-07T12:55:34.728Z,9.00
2023-04-07T12:58:04.473Z,10.70
2023-04-07T13:00:33.776Z,8.63
2023-04-07T13:03:03.454Z,4.88
2023-04-07T13:05:32.873Z,8.73
2023-04-07T13:08:02.739Z,13.57
2023-04-07T13:10:32.495Z,12.23
2023-04-07T13:13:01.607Z,5.35
2023-04-07T13:15:31.237Z,11.80
2023-04-07T13:18:01.360Z,7.63
2023-04-07T13:20:31.868Z,12.93
2023-04-07T13:23:08.298Z,8.57
2023-04-07T13:25:39.783Z,16.33
2023-04-07T13:28:09.283Z,15.63
2023-04-07T13:30:38.595Z,15.93
2023-04-07T13:33:08.138Z,12.35
2023-04-07T13:35:37.461Z,9.63
2023-04-07T13:38:06.864Z,8.10
2023-04-07T13:40:36.989Z,11.18
2023-04-07T13:43:07.460Z,16.75
2023-04-07T13:45:37.501Z,14.00
2023-04-07T13:48:06.951Z,12.77
2023-04-07T13:50:38.487Z,12.60
2023-04-07T13:53:08.049Z,15.38
2023-04-07T13:55:38.053Z,11.80
2023-04-07T13:58:07.565Z,16.35
2023-04-07T14:00:39.618Z,15.88
2023-04-07T14:03:09.659Z,13.63
2023-04-07T14:05:39.364Z,19.35
2023-04-07T14:08:08.534Z,21.65
2023-04-07T14:10:38.098Z,22.42
2023-04-07T14:13:08.015Z,13.23
2023-04-07T14:15:37.659Z,18.50
2023-04-07T14:18:07.436Z,21.60
2023-04-07T14:20:36.796Z,22.45
2023-04-07T14:23:06.139Z,20.15
2023-04-07T14:25:36.081Z,18.55
2023-04-07T14:28:05.499Z,22.95
2023-04-07T14:30:39.999Z,18.85
2023-04-07T14:33:10.090Z,22.77
2023-04-07T14:35:40.573Z,14.18
2023-04-07T14:38:09.859Z,22.35
2023-04-07T14:40:39.557Z,26.33
2023-04-07T14:43:09.676Z,22.80
2023-04-07T14:45:40.756Z,21.95
2023-04-07T14:48:10.966Z,18.17
2023-04-07T14:50:42.370Z,20.67
2023-04-07T14:53:11.829Z,20.10
2023-04-07T14:55:42.516Z,18.83
2023-04-07T14:58:11.870Z,30.17
2023-04-07T15:00:41.950Z,27.30
2023-04-07T15:03:11.487Z,30.08
2023-04-07T15:05:41.044Z,27.75
2023-04-07T15:08:10.744Z,21.13
2023-04-07T15:10:41.004Z,22.17
2023-04-07T15:13:10.196Z,20.60
2023-04-07T15:15:39.637Z,29.75
2023-04-07T15:18:09.081Z,26.20
2023-04-07T15:20:38.767Z,32.83
2023-04-07T15:23:07.868Z,29.80
2023-04-07T15:25:37.209Z,29.42
2023-04-07T15:28:06.685Z,25.48
2023-04-07T15:30:37.162Z,34.17
2023-04-07T15:33:07.187Z,19.30
2023-04-07T15:35:36.823Z,21.83
2023-04-07T15:38:07.334Z,29.65
2023-04-07T15:40:40.833Z,28.58
2023-04-07T15:43:12.551Z,27.92
2023-04-07T15:45:46.016Z,30.33
2023-04-07T15:48:16.127Z,29.88
2023-04-07T15:50:48.506Z,28.33
2023-04-07T15:53:17.992Z,29.47
2023-04-07T15:55:47.364Z,26.02
2023-04-07T15:58:16.820Z,33.15
2023-04-07T16:00:46.921Z,35.33
2023-04-07T16:03:16.495Z,32.10
2023-04-07T16:05:45.708Z,31.15
2023-04-07T16:08:16.087Z,34.50
2023-04-07T16:10:45.014Z,25.15
2023-04-07T16:13:16.641Z,41.45
2023-04-07T16:15:46.032Z,43.30
2023-04-07T16:18:15.305Z,49.28
2023-04-07T16:20:45.146Z,34.72
2023-04-07T16:23:14.241Z,44.47
2023-04-07T16:25:43.636Z,52.47
2023-04-07T16:28:13.208Z,43.45
2023-04-07T16:30:43.956Z,42.55
2023-04-07T16:33:14.351Z,49.47
2023-04-07T16:35:43.429Z,42.55
2023-04-07T16:38:12.692Z,59.22
2023-04-07T16:41:02.850Z,54.60
2023-04-07T16:43:33.159Z,46.67
2023-04-07T16:46:03.295Z,40.88
2023-04-07T16:48:32.809Z,55.28
2023-04-07T16:51:02.298Z,38.78
2023-04-07T16:53:32.180Z,43.55
2023-04-07T16:56:01.959Z,46.40
2023-04-07T16:58:31.345Z,38.83
2023-04-07T17:01:00.815Z,59.70
2023-04-07T17:03:30.798Z,42.40
2023-04-07T17:06:06.727Z,54.57
2023-04-07T17:08:38.096Z,44.17
2023-04-07T17:11:08.667Z,48.30
2023-04-07T17:13:38.953Z,48.88
2023-04-07T17:16:13.189Z,48.05
2023-04-07T17:18:42.687Z,42.45
2023-04-07T17:21:11.750Z,40.28
2023-04-07T17:23:41.629Z,44.80
2023-04-07T17:26:10.966Z,35.40
2023-04-07T17:28:40.359Z,33.28
2023-04-07T17:31:09.797Z,46.35
2023-04-07T17:33:39.312Z,38.20
2023-04-07T17:36:08.698Z,32.13
2023-04-07T17:38:38.661Z,34.75
2023-04-07T17:41:08.807Z,42.25
2023-04-07T17:43:38.358Z,34.45
2023-04-07T17:46:07.787Z,36.30
2023-04-07T17:48:38.039Z,30.35
2023-04-07T17:51:09.119Z,36.58
2023-04-07T17:53:38.292Z,38.22
2023-04-07T17:56:07.731Z,29.25
2023-04-07T17:58:37.044Z,28.77
2023-04-07T18:01:09.329Z,34.22
2023-04-07T18:03:39.516Z,40.92
2023-04-07T18:06:09.824Z,31.70
2023-04-07T18:08:39.751Z,34.70
2023-04-07T18:11:09.789Z,42.42
2023-04-07T18:13:39.557Z,47.45
2023-04-07T18:16:10.709Z,48.95
2023-04-07T18:18:40.680Z,40.85
2023-04-07T18:21:10.597Z,51.78
2023-04-07T18:23:41.401Z,64.07
2023-04-07T18:26:11.815Z,46.83
2023-04-07T18:28:42.882Z,49.90
2023-04-07T18:31:14.067Z,49.45
2023-04-07T18:33:43.879Z,44.65
2023-04-07T18:36:15.233Z,43.80
2023-04-07T18:38:45.794Z,42.40
2023-04-07T18:41:16.950Z,42.63
2023-04-07T18:43:50.353Z,44.15
2023-04-07T18:46:20.020Z,44.65
2023-04-07T18:48:50.174Z,36.65
2023-04-07T18:51:20.298Z,35.95
2023-04-07T18:53:50.624Z,46.83
2023-04-07T18:56:23.056Z,42.17
2023-04-07T18:58:52.851Z,35.10
2023-04-07T19:01:23.330Z,33.88
2023-04-07T19:03:53.946Z,33.83
2023-04-07T19:06:24.485Z,35.85
2023-04-07T19:08:54.477Z,44.78
2023-04-07T19:11:23.943Z,40.47
2023-04-07T19:13:57.900Z,37.38
2023-04-07T19:16:28.220Z,33.80
2023-04-07T19:18:58.712Z,32.97
2023-04-07T19:21:28.932Z,37.97
2023-04-07T19:24:01.178Z,40.08
2023-04-07T19:26:31.830Z,36.25
2023-04-07T19:29:01.797Z,39.20
2023-04-07T19:31:32.683Z,43.33
2023-04-07T19:34:02.419Z,49.63
2023-04-07T19:36:32.621Z,51.55
2023-04-07T19:39:02.174Z,48.50
2023-04-07T19:41:31.805Z,52.95
2023-04-07T19:44:02.346Z,51.72
2023-04-07T19:46:34.374Z,48.50
2023-04-07T19:49:04.409Z,56.58
2023-04-07T19:51:34.287Z,54.10
2023-04-07T19:54:03.930Z,56.17
2023-04-07T19:56:33.536Z,52.75
2023-04-07T19:59:03.817Z,52.63
2023-04-07T20:01:34.017Z,57.65
2023-04-07T20:04:04.618Z,57.65
2023-04-07T20:06:37.770Z,54.50
2023-04-07T20:09:07.687Z,61.17
2023-04-07T20:11:37.599Z,61.15
2023-04-07T20:14:07.054Z,67.82
2023-04-07T20:16:37.446Z,66.60
2023-04-07T20:19:07.195Z,55.65
2023-04-07T20:21:37.877Z,56.53
2023-04-07T20:24:07.799Z,62.22
2023-04-07T20:26:36.868Z,64.07
2023-04-07T20:29:07.424Z,56.40
2023-04-07T20:31:36.680Z,66.90
2023-04-07T20:34:06.781Z,59.20
2023-04-07T20:36:36.704Z,61.22
2023-04-07T20:39:06.753Z,67.32
2023-04-07T20:41:35.881Z,63.83
2023-04-07T20:44:05.734Z,69.43
2023-04-07T20:46:35.220Z,73.15
2023-04-07T20:49:08.815Z,65.38
2023-04-07T20:51:38.329Z,60.78
2023-04-07T20:54:07.729Z,60.95
2023-04-07T20:56:38.049Z,63.08
2023-04-07T20:59:07.635Z,62.83
2023-04-07T21:01:37.897Z,56.85
2023-04-07T21:04:07.606Z,61.88
2023-04-07T21:06:37.209Z,65.88
2023-04-07T21:09:10.085Z,64.43
2023-04-07T21:11:40.213Z,63.00
2023-04-07T21:14:09.263Z,69.47
2023-04-07T21:16:38.585Z,84.25
2023-04-07T21:19:08.595Z,72.75
2023-04-07T21:21:37.935Z,78.55
2023-04-07T21:24:07.469Z,85.45
2023-04-07T21:26:37.301Z,89.75
2023-04-07T21:29:06.628Z,86.93
2023-04-07T21:31:36.425Z,94.13
2023-04-07T21:34:05.487Z,84.95
2023-04-07T21:36:35.073Z,91.07
2023-04-07T21:39:04.419Z,85.72
2023-04-07T21:41:33.783Z,90.00
2023-04-07T21:44:03.523Z,84.57
2023-04-07T21:46:34.461Z,89.05
2023-04-07T21:49:03.878Z,77.80
2023-04-07T21:51:34.874Z,86.18
2023-04-07T21:54:04.908Z,80.10
2023-04-07T21:56:34.613Z,77.75
2023-04-07T21:59:05.341Z,80.57
2023-04-07T22:01:35.190Z,75.00
2023-04-07T22:04:04.603Z,66.65
2023-04-07T22:06:34.055Z,77.15
2023-04-07T22:09:03.739Z,72.55
2023-04-07T22:11:34.588Z,63.28
2023-04-07T22:14:03.745Z,70.20
2023-04-07T22:16:33.641Z,65.05
2023-04-07T22:19:03.945Z,72.43
2023-04-07T22:21:37.415Z,62.42
2023-04-07T22:24:06.679Z,54.35
2023-04-07T22:26:36.217Z,68.30
2023-04-07T22:29:06.054Z,64.28
2023-04-07T22:31:35.660Z,61.40
2023-04-07T22:34:05.622Z,72.63
2023-04-07T22:36:35.696Z,78.13
2023-04-07T22:39:05.683Z,78.32
2023-04-07T22:41:34.776Z,70.68
2023-04-07T22:44:04.815Z,70.25
2023-04-07T22:46:33.930Z,74.90
2023-04-07T22:49:03.238Z,87.00
2023-04-07T22:51:32.649Z,75.07
2023-04-07T22:54:02.013Z,78.97
2023-04-07T22:56:32.607Z,85.75
2023-04-07T22:59:06.344Z,81.50
2023-04-07T23:01:36.610Z,81.28
2023-04-07T23:04:06.207Z,75.95
2023-04-07T23:06:35.814Z,78.38
2023-04-07T23:09:05.253Z,85.95
2023-04-07T23:11:34.822Z,78.70
2023-04-07T23:14:07.248Z,73.63
2023-04-07T23:16:36.927Z,73.13
2023-04-07T23:19:07.242Z,75.47
2023-04-07T23:21:36.482Z,75.72
2023-04-07T23:24:06.142Z,81.13
2023-04-07T23:26:35.424Z,82.32
2023-04-07T23:29:04.732Z,81.40
2023-04-07T23:31:34.154Z,84.03
2023-04-07T23:34:05.691Z,84.00
2023-04-07T23:36:35.815Z,88.05
2023-04-07T23:39:05.541Z,84.38
2023-04-07T23:41:34.764Z,88.80
2023-04-07T23:44:04.956Z,81.75
2023-04-07T23:46:34.878Z,91.07
2023-04-07T23:49:04.953Z,92.55
2023-04-07T23:51:34.166Z,91.07
2023-04-07T23:54:03.363Z,94.78
2023-04-07T23:56:33.543Z,90.28
2023-04-07T23:59:03.169Z,97.10
